createdAt,value
2017-11-15T00:00:29.385Z,49.24
2017-11-15T00:01:29.423Z,49.05
2017-11-15T00:02:29.459Z,48.66
2017-11-15T00:03:50.515Z,48.95
2017-11-15T00:04:29.539Z,48.66
2017-11-15T00:05:29.576Z,48.47
2017-11-15T00:06:29.615Z,48.85
2017-11-15T00:07:29.663Z,47.99
2017-11-15T00:08:29.704Z,48.38
2017-11-15T00:09:50.758Z,48.21
2017-11-15T00:10:29.777Z,48.02
2017-11-15T00:11:29.817Z,48.30
2017-11-15T00:12:29.855Z,48.02
2017-11-15T00:13:29.894Z,48.02
2017-11-15T00:14:29.935Z,47.82
2017-11-15T00:15:50.995Z,47.44
2017-11-15T00:16:30.017Z,47.82
2017-11-15T00:17:30.053Z,47.34
2017-11-15T00:18:30.101Z,47.82
2017-11-15T00:19:30.146Z,47.72
2017-11-15T00:20:30.175Z,47.44
2017-11-15T00:21:51.240Z,47.53
2017-11-15T00:22:30.265Z,47.72
2017-11-15T00:23:30.301Z,47.53
2017-11-15T00:24:30.336Z,47.34
2017-11-15T00:25:30.376Z,47.44
2017-11-15T00:26:30.424Z,47.72
2017-11-15T00:27:51.484Z,47.44
2017-11-15T00:28:30.500Z,47.44
2017-11-15T00:29:30.541Z,47.05
2017-11-15T00:30:30.577Z,47.53
2017-11-15T00:31:30.618Z,47.72
2017-11-15T00:32:30.658Z,47.34
2017-11-15T00:33:51.724Z,47.80
2017-11-15T00:34:30.742Z,47.32
2017-11-15T00:35:30.783Z,47.89
2017-11-15T00:36:30.819Z,47.89
2017-11-15T00:37:30.863Z,47.71
2017-11-15T00:38:30.907Z,47.41
2017-11-15T00:39:51.964Z,47.61
2017-11-15T00:40:30.984Z,48.38
2017-11-15T00:41:31.021Z,47.80
2017-11-15T00:42:31.058Z,47.03
2017-11-15T00:43:31.103Z,47.61
2017-11-15T00:44:31.142Z,47.80
2017-11-15T00:45:52.204Z,47.89
2017-11-15T00:46:31.224Z,47.89
2017-11-15T00:47:31.258Z,48.28
2017-11-15T00:48:31.307Z,48.09
2017-11-15T00:49:31.348Z,48.18
2017-11-15T00:50:31.385Z,48.38
2017-11-15T00:51:52.443Z,48.38
2017-11-15T00:52:31.482Z,48.09
2017-11-15T00:53:31.502Z,48.09
2017-11-15T00:54:31.549Z,48.57
2017-11-15T00:55:31.582Z,48.28
2017-11-15T00:56:31.623Z,48.44
2017-11-15T00:57:52.686Z,48.35
2017-11-15T00:58:31.701Z,48.07
2017-11-15T00:59:31.749Z,48.38
2017-11-15T01:00:31.788Z,48.07
2017-11-15T01:01:31.822Z,48.83
2017-11-15T01:02:31.869Z,48.35
2017-11-15T01:03:52.928Z,48.64
2017-11-15T01:04:31.950Z,48.83
2017-11-15T01:05:31.983Z,48.93
2017-11-15T01:06:32.028Z,48.83
2017-11-15T01:07:32.064Z,48.64
2017-11-15T01:08:32.101Z,48.83
2017-11-15T01:09:53.173Z,49.15
2017-11-15T01:10:32.190Z,48.47
2017-11-15T01:11:32.227Z,48.66
2017-11-15T01:12:32.270Z,48.95
2017-11-15T01:13:32.313Z,48.57
2017-11-15T01:14:32.345Z,48.18
2017-11-15T01:15:53.406Z,48.18
2017-11-15T01:16:32.432Z,48.28
2017-11-15T01:17:32.481Z,47.80
2017-11-15T01:18:32.509Z,48.21
2017-11-15T01:19:32.547Z,47.53
2017-11-15T01:20:32.584Z,47.34
2017-11-15T01:21:53.654Z,47.44
2017-11-15T01:22:32.665Z,47.53
2017-11-15T01:23:32.707Z,47.53
2017-11-15T01:24:32.753Z,47.63
2017-11-15T01:25:32.789Z,47.44
2017-11-15T01:26:32.832Z,47.25
2017-11-15T01:27:53.893Z,47.05
2017-11-15T01:28:32.906Z,47.05
2017-11-15T01:29:32.948Z,46.86
2017-11-15T01:30:32.987Z,46.96
2017-11-15T01:31:33.029Z,46.96
2017-11-15T01:32:33.068Z,46.96
2017-11-15T01:33:54.146Z,46.86
2017-11-15T01:34:33.152Z,46.86
2017-11-15T01:35:33.195Z,46.86
2017-11-15T01:36:33.225Z,46.86
2017-11-15T01:37:33.269Z,46.77
2017-11-15T01:38:33.310Z,46.96
2017-11-15T01:39:54.377Z,47.05
2017-11-15T01:40:33.386Z,46.77
2017-11-15T01:41:33.434Z,46.28
2017-11-15T01:42:33.471Z,46.67
2017-11-15T01:43:33.508Z,46.77
2017-11-15T01:44:33.551Z,46.58
2017-11-15T01:45:54.613Z,46.86
2017-11-15T01:46:33.633Z,46.77
2017-11-15T01:47:33.670Z,46.86
2017-11-15T01:48:33.713Z,47.25
2017-11-15T01:49:33.753Z,47.53
2017-11-15T01:50:33.790Z,46.74
2017-11-15T01:51:54.860Z,47.22
2017-11-15T01:52:33.872Z,47.41
2017-11-15T01:53:33.913Z,47.51
2017-11-15T01:54:33.950Z,47.13
2017-11-15T01:55:33.997Z,47.32
2017-11-15T01:56:34.036Z,47.13
2017-11-15T01:57:55.096Z,47.32
2017-11-15T01:58:34.116Z,47.61
2017-11-15T01:59:34.163Z,47.22
2017-11-15T02:00:34.197Z,47.51
2017-11-15T02:01:34.233Z,47.41
2017-11-15T02:02:34.279Z,46.94
2017-11-15T02:03:55.344Z,47.32
2017-11-15T02:04:34.357Z,47.41
2017-11-15T02:05:34.395Z,47.89
2017-11-15T02:06:34.453Z,47.32
2017-11-15T02:07:34.481Z,47.61
2017-11-15T02:08:34.561Z,47.20
2017-11-15T02:09:55.577Z,47.89
2017-11-15T02:10:34.594Z,47.97
2017-11-15T02:11:34.635Z,48.35
2017-11-15T02:12:34.674Z,47.97
2017-11-15T02:13:34.733Z,47.97
2017-11-15T02:14:34.761Z,48.16
2017-11-15T02:15:55.819Z,48.54
2017-11-15T02:16:34.884Z,48.64
2017-11-15T02:17:34.878Z,48.64
2017-11-15T02:18:34.918Z,48.83
2017-11-15T02:19:34.959Z,48.93
2017-11-15T02:20:35.003Z,48.38
2017-11-15T02:21:56.061Z,47.99
2017-11-15T02:22:35.090Z,48.09
2017-11-15T02:23:35.115Z,48.18
2017-11-15T02:24:35.158Z,47.89
2017-11-15T02:25:35.198Z,47.71
2017-11-15T02:26:35.248Z,47.71
2017-11-15T02:27:56.302Z,47.61
2017-11-15T02:28:35.316Z,47.53
2017-11-15T02:29:35.359Z,47.34
2017-11-15T02:30:35.401Z,47.44
2017-11-15T02:31:35.439Z,47.25
2017-11-15T02:32:35.482Z,46.86
2017-11-15T02:33:56.545Z,46.86
2017-11-15T02:34:35.562Z,46.86
2017-11-15T02:35:35.602Z,46.86
2017-11-15T02:36:35.639Z,46.58
2017-11-15T02:37:35.757Z,46.67
2017-11-15T02:38:35.719Z,46.48
2017-11-15T02:39:56.780Z,46.28
2017-11-15T02:40:35.804Z,46.28
2017-11-15T02:41:35.842Z,46.09
2017-11-15T02:42:35.884Z,46.19
2017-11-15T02:43:35.930Z,46.19
2017-11-15T02:44:35.967Z,46.28
2017-11-15T02:45:57.034Z,46.28
2017-11-15T02:46:36.046Z,46.28
2017-11-15T02:47:36.084Z,45.90
2017-11-15T02:48:36.124Z,45.90
2017-11-15T02:49:36.161Z,46.19
2017-11-15T02:50:36.276Z,46.00
2017-11-15T02:51:57.263Z,45.90
2017-11-15T02:52:36.290Z,46.09
2017-11-15T02:53:36.324Z,46.19
2017-11-15T02:54:36.364Z,45.81
2017-11-15T02:55:36.440Z,46.00
2017-11-15T02:56:36.444Z,46.19
2017-11-15T02:57:57.517Z,46.67
2017-11-15T02:58:36.528Z,46.77
2017-11-15T02:59:36.567Z,46.77
2017-11-15T03:00:36.606Z,46.58
2017-11-15T03:01:36.651Z,46.58
2017-11-15T03:02:36.693Z,46.74
2017-11-15T03:03:57.747Z,46.94
2017-11-15T03:04:36.779Z,46.94
2017-11-15T03:05:36.811Z,46.84
2017-11-15T03:06:36.849Z,46.74
2017-11-15T03:07:36.886Z,46.74
2017-11-15T03:08:36.934Z,46.84
2017-11-15T03:09:57.992Z,47.32
2017-11-15T03:10:37.012Z,47.51
2017-11-15T03:11:37.049Z,47.61
2017-11-15T03:12:37.101Z,47.71
2017-11-15T03:13:37.130Z,47.61
2017-11-15T03:14:37.169Z,47.61
2017-11-15T03:15:58.230Z,47.58
2017-11-15T03:16:37.254Z,47.39
2017-11-15T03:17:37.290Z,47.41
2017-11-15T03:18:37.330Z,47.61
2017-11-15T03:19:37.377Z,47.97
2017-11-15T03:20:37.417Z,48.25
2017-11-15T03:21:58.474Z,47.87
2017-11-15T03:22:37.494Z,48.07
2017-11-15T03:23:37.539Z,48.16
2017-11-15T03:24:37.577Z,48.16
2017-11-15T03:25:37.614Z,48.07
2017-11-15T03:26:37.657Z,48.07
2017-11-15T03:27:58.715Z,48.16
2017-11-15T03:28:37.732Z,48.28
2017-11-15T03:29:37.776Z,47.71
2017-11-15T03:30:37.816Z,47.89
2017-11-15T03:31:37.858Z,47.32
2017-11-15T03:32:37.891Z,47.13
2017-11-15T03:33:58.968Z,47.22
2017-11-15T03:34:37.974Z,47.13
2017-11-15T03:35:38.010Z,47.32
2017-11-15T03:36:38.058Z,46.77
2017-11-15T03:37:38.094Z,46.86
2017-11-15T03:38:38.135Z,46.67
2017-11-15T03:39:59.203Z,47.05
2017-11-15T03:40:38.223Z,46.67
2017-11-15T03:41:38.268Z,46.48
2017-11-15T03:42:38.300Z,46.38
2017-11-15T03:43:38.334Z,46.28
2017-11-15T03:44:38.376Z,46.09
2017-11-15T03:45:59.443Z,45.90
2017-11-15T03:46:38.457Z,46.00
2017-11-15T03:47:38.499Z,46.19
2017-11-15T03:48:38.537Z,46.00
2017-11-15T03:49:38.576Z,46.09
2017-11-15T03:50:38.615Z,46.19
2017-11-15T03:51:59.680Z,46.19
2017-11-15T03:52:38.698Z,46.09
2017-11-15T03:53:38.743Z,46.09
2017-11-15T03:54:38.779Z,46.09
2017-11-15T03:55:38.813Z,46.28
2017-11-15T03:56:38.857Z,45.90
2017-11-15T03:57:59.929Z,45.81
2017-11-15T03:58:38.938Z,46.09
2017-11-15T03:59:38.981Z,45.71
2017-11-15T04:00:39.016Z,45.81
2017-11-15T04:01:39.059Z,45.71
2017-11-15T04:02:39.103Z,45.61
2017-11-15T04:04:00.160Z,45.71
2017-11-15T04:04:39.181Z,45.71
2017-11-15T04:05:39.225Z,46.09
2017-11-15T04:06:39.266Z,46.09
2017-11-15T04:07:39.307Z,46.09
2017-11-15T04:08:39.346Z,46.19
2017-11-15T04:10:00.424Z,46.00
2017-11-15T04:10:39.424Z,46.55
2017-11-15T04:11:39.462Z,46.55
2017-11-15T04:12:39.500Z,46.55
2017-11-15T04:13:39.545Z,46.55
2017-11-15T04:14:39.585Z,46.74
2017-11-15T04:16:00.652Z,46.65
2017-11-15T04:16:39.664Z,46.94
2017-11-15T04:17:39.703Z,46.65
2017-11-15T04:18:39.747Z,46.84
2017-11-15T04:19:39.788Z,46.94
2017-11-15T04:20:39.829Z,46.84
2017-11-15T04:22:00.889Z,46.84
2017-11-15T04:22:39.910Z,47.03
2017-11-15T04:23:39.946Z,47.51
2017-11-15T04:24:39.988Z,47.10
2017-11-15T04:25:40.033Z,47.39
2017-11-15T04:26:40.072Z,47.39
2017-11-15T04:28:01.128Z,47.39
2017-11-15T04:28:40.146Z,47.49
2017-11-15T04:29:40.186Z,47.87
2017-11-15T04:30:40.230Z,47.77
2017-11-15T04:31:40.266Z,47.39
2017-11-15T04:32:40.306Z,47.77
2017-11-15T04:34:01.377Z,47.51
2017-11-15T04:34:40.387Z,47.71
2017-11-15T04:35:40.433Z,47.01
2017-11-15T04:36:40.466Z,47.51
2017-11-15T04:37:40.509Z,47.61
2017-11-15T04:38:40.547Z,47.61
2017-11-15T04:40:01.609Z,47.32
2017-11-15T04:40:40.629Z,46.74
2017-11-15T04:41:40.713Z,46.74
2017-11-15T04:42:40.711Z,46.84
2017-11-15T04:43:40.752Z,46.58
2017-11-15T04:44:40.788Z,46.48
2017-11-15T04:46:01.857Z,46.38
2017-11-15T04:46:40.870Z,45.90
2017-11-15T04:47:40.907Z,45.90
2017-11-15T04:48:40.950Z,46.00
2017-11-15T04:49:40.989Z,46.09
2017-11-15T04:50:41.030Z,45.71
2017-11-15T04:52:02.099Z,45.90
2017-11-15T04:52:41.111Z,45.71
2017-11-15T04:53:41.158Z,46.00
2017-11-15T04:54:41.197Z,45.52
2017-11-15T04:55:41.232Z,45.61
2017-11-15T04:56:41.275Z,45.61
2017-11-15T04:58:02.342Z,45.71
2017-11-15T04:58:41.352Z,45.52
2017-11-15T04:59:41.398Z,45.90
2017-11-15T05:00:41.430Z,45.61
2017-11-15T05:01:41.482Z,45.61
2017-11-15T05:02:41.516Z,45.52
2017-11-15T05:04:02.574Z,45.81
2017-11-15T05:04:41.596Z,45.52
2017-11-15T05:05:41.637Z,46.00
2017-11-15T05:06:41.679Z,45.71
2017-11-15T05:07:41.714Z,45.90
2017-11-15T05:08:41.770Z,45.90
2017-11-15T05:10:02.821Z,45.71
2017-11-15T05:10:41.847Z,45.71
2017-11-15T05:11:41.873Z,46.00
2017-11-15T05:12:41.919Z,45.61
2017-11-15T05:13:41.956Z,45.81
2017-11-15T05:14:41.994Z,45.71
2017-11-15T05:16:03.058Z,45.61
2017-11-15T05:16:42.080Z,45.52
2017-11-15T05:17:42.116Z,45.90
2017-11-15T05:18:42.160Z,46.00
2017-11-15T05:19:42.202Z,45.90
2017-11-15T05:20:42.235Z,46.17
2017-11-15T05:22:03.306Z,46.17
2017-11-15T05:22:42.325Z,46.45
2017-11-15T05:23:42.360Z,46.17
2017-11-15T05:24:42.396Z,46.26
2017-11-15T05:25:42.444Z,46.26
2017-11-15T05:26:42.481Z,46.55
2017-11-15T05:28:03.542Z,46.55
2017-11-15T05:28:42.559Z,46.94
2017-11-15T05:29:42.607Z,46.45
2017-11-15T05:30:42.645Z,46.84
2017-11-15T05:31:42.700Z,46.55
2017-11-15T05:32:42.724Z,46.94
2017-11-15T05:34:03.786Z,46.72
2017-11-15T05:34:42.802Z,46.72
2017-11-15T05:35:42.845Z,47.49
2017-11-15T05:36:42.882Z,47.58
2017-11-15T05:37:42.926Z,47.30
2017-11-15T05:38:42.965Z,47.30
2017-11-15T05:40:04.026Z,47.77
2017-11-15T05:40:43.221Z,47.68
2017-11-15T05:41:43.088Z,47.58
2017-11-15T05:42:43.124Z,47.77
2017-11-15T05:43:43.170Z,47.49
2017-11-15T05:44:43.204Z,47.97
2017-11-15T05:46:04.270Z,48.44
2017-11-15T05:46:43.286Z,48.35
2017-11-15T05:47:43.328Z,48.25
2017-11-15T05:48:43.365Z,48.16
2017-11-15T05:49:43.403Z,48.16
2017-11-15T05:50:43.449Z,48.16
2017-11-15T05:52:04.506Z,47.68
2017-11-15T05:52:43.526Z,47.77
2017-11-15T05:53:43.564Z,47.77
2017-11-15T05:54:43.610Z,47.41
2017-11-15T05:55:43.646Z,47.51
2017-11-15T05:56:43.687Z,47.61
2017-11-15T05:58:04.748Z,47.49
2017-11-15T05:58:43.766Z,47.41
2017-11-15T05:59:43.804Z,47.03
2017-11-15T06:00:43.846Z,46.74
2017-11-15T06:01:43.884Z,46.94
2017-11-15T06:02:44.015Z,47.03
2017-11-15T06:04:04.993Z,46.84
2017-11-15T06:04:44.005Z,46.55
2017-11-15T06:05:44.050Z,46.65
2017-11-15T06:06:44.085Z,46.26
2017-11-15T06:07:44.136Z,46.55
2017-11-15T06:08:44.165Z,46.26
2017-11-15T06:10:05.306Z,45.88
2017-11-15T06:10:44.290Z,46.45
2017-11-15T06:11:44.423Z,45.98
2017-11-15T06:12:44.436Z,45.88
2017-11-15T06:13:44.405Z,45.98
2017-11-15T06:14:44.433Z,45.78
2017-11-15T06:16:05.576Z,46.17
2017-11-15T06:16:44.590Z,46.26
2017-11-15T06:17:44.644Z,46.36
2017-11-15T06:18:44.625Z,46.26
2017-11-15T06:19:44.667Z,46.26
2017-11-15T06:20:44.688Z,46.45
2017-11-15T06:22:05.738Z,46.45
2017-11-15T06:22:44.778Z,46.74
2017-11-15T06:23:44.836Z,46.55
2017-11-15T06:24:44.833Z,46.26
2017-11-15T06:25:44.940Z,46.45
2017-11-15T06:26:44.886Z,46.55
2017-11-15T06:28:06.072Z,46.55
2017-11-15T06:28:44.971Z,46.36
2017-11-15T06:29:45.127Z,46.65
2017-11-15T06:30:45.170Z,46.65
2017-11-15T06:31:45.207Z,46.45
2017-11-15T06:32:45.205Z,47.03
2017-11-15T06:34:06.317Z,46.74
2017-11-15T06:34:45.305Z,47.03
2017-11-15T06:35:45.250Z,46.55
2017-11-15T06:36:45.374Z,46.84
2017-11-15T06:37:45.420Z,46.72
2017-11-15T06:38:45.379Z,46.62
2017-11-15T06:40:06.462Z,46.72
2017-11-15T06:40:45.567Z,46.81
2017-11-15T06:41:45.499Z,45.57
2017-11-15T06:42:45.533Z,45.57
2017-11-15T06:43:45.571Z,44.42
2017-11-15T06:44:45.615Z,44.51
2017-11-15T06:46:06.874Z,44.42
2017-11-15T06:46:45.918Z,44.90
2017-11-15T06:47:45.760Z,45.86
2017-11-15T06:48:45.777Z,45.95
2017-11-15T06:49:45.855Z,47.01
2017-11-15T06:50:45.908Z,47.58
2017-11-15T06:52:07.010Z,47.30
2017-11-15T06:52:45.937Z,48.16
2017-11-15T06:53:46.047Z,48.07
2017-11-15T06:54:46.010Z,48.07
2017-11-15T06:55:46.049Z,48.16
2017-11-15T06:56:46.091Z,48.18
2017-11-15T06:58:07.154Z,48.28
2017-11-15T06:58:46.176Z,47.99
2017-11-15T06:59:46.215Z,48.09
2017-11-15T07:00:46.250Z,48.21
2017-11-15T07:01:46.298Z,48.59
2017-11-15T07:02:46.335Z,48.02
2017-11-15T07:04:07.391Z,48.43
2017-11-15T07:04:46.448Z,48.23
2017-11-15T07:05:46.457Z,48.13
2017-11-15T07:06:46.502Z,48.13
2017-11-15T07:07:46.537Z,48.04
2017-11-15T07:08:46.682Z,48.16
2017-11-15T07:10:07.635Z,48.25
2017-11-15T07:10:46.659Z,48.35
2017-11-15T07:11:46.702Z,47.87
2017-11-15T07:12:46.739Z,47.97
2017-11-15T07:13:46.782Z,48.25
2017-11-15T07:14:46.818Z,48.35
2017-11-15T07:16:07.877Z,47.87
2017-11-15T07:16:47.941Z,47.87
2017-11-15T07:17:46.935Z,48.25
2017-11-15T07:18:46.980Z,48.64
2017-11-15T07:19:47.011Z,49.02
2017-11-15T07:20:47.060Z,48.93
2017-11-15T07:22:08.133Z,49.02
2017-11-15T07:22:47.150Z,48.74
2017-11-15T07:23:47.335Z,49.12
2017-11-15T07:24:47.221Z,48.64
2017-11-15T07:25:47.261Z,48.16
2017-11-15T07:26:47.310Z,48.93
2017-11-15T07:28:08.370Z,49.22
2017-11-15T07:28:47.392Z,48.64
2017-11-15T07:29:47.434Z,48.83
2017-11-15T07:30:47.462Z,49.02
2017-11-15T07:31:47.521Z,48.54
2017-11-15T07:32:47.554Z,49.31
2017-11-15T07:34:08.618Z,49.02
2017-11-15T07:34:47.644Z,49.22
2017-11-15T07:35:47.713Z,48.83
2017-11-15T07:36:47.715Z,50.08
2017-11-15T07:37:47.758Z,50.18
2017-11-15T07:38:47.796Z,49.79
2017-11-15T07:40:08.853Z,49.99
2017-11-15T07:40:47.881Z,50.27
2017-11-15T07:41:47.929Z,50.56
2017-11-15T07:42:47.950Z,50.56
2017-11-15T07:43:48.003Z,49.89
2017-11-15T07:44:48.306Z,50.27
2017-11-15T07:46:09.365Z,50.56
2017-11-15T07:46:48.298Z,51.04
2017-11-15T07:47:48.184Z,50.18
2017-11-15T07:48:48.203Z,50.95
2017-11-15T07:49:48.260Z,50.46
2017-11-15T07:50:48.298Z,50.37
2017-11-15T07:52:09.344Z,50.76
2017-11-15T07:52:48.366Z,50.66
2017-11-15T07:53:48.407Z,50.46
2017-11-15T07:54:48.448Z,50.56
2017-11-15T07:55:48.489Z,50.76
2017-11-15T07:56:49.581Z,51.23
2017-11-15T07:58:09.920Z,50.76
2017-11-15T07:58:48.625Z,51.04
2017-11-15T07:59:48.662Z,51.23
2017-11-15T08:00:48.699Z,51.14
2017-11-15T08:01:48.756Z,50.76
2017-11-15T08:02:48.783Z,51.14
2017-11-15T08:04:11.362Z,50.95
2017-11-15T08:04:48.874Z,51.33
2017-11-15T08:05:48.901Z,51.23
2017-11-15T08:06:48.954Z,51.23
2017-11-15T08:07:49.073Z,51.43
2017-11-15T08:08:49.126Z,51.81
2017-11-15T08:10:10.092Z,51.81
2017-11-15T08:10:49.106Z,51.91
2017-11-15T08:11:49.161Z,50.95
2017-11-15T08:12:49.198Z,51.33
2017-11-15T08:13:49.245Z,51.53
2017-11-15T08:14:49.284Z,51.72
2017-11-15T08:16:10.336Z,51.62
2017-11-15T08:16:49.477Z,51.81
2017-11-15T08:17:49.392Z,51.14
2017-11-15T08:18:49.447Z,51.17
2017-11-15T08:19:49.488Z,51.23
2017-11-15T08:20:49.575Z,50.97
2017-11-15T08:22:10.589Z,51.64
2017-11-15T08:22:49.617Z,51.84
2017-11-15T08:23:49.649Z,52.29
2017-11-15T08:24:49.682Z,51.93
2017-11-15T08:25:49.722Z,51.45
2017-11-15T08:26:49.941Z,51.74
2017-11-15T08:28:10.831Z,52.03
2017-11-15T08:28:49.853Z,52.12
2017-11-15T08:29:50.124Z,52.22
2017-11-15T08:30:49.934Z,52.32
2017-11-15T08:31:49.997Z,52.12
2017-11-15T08:32:50.017Z,52.32
2017-11-15T08:34:11.079Z,51.84
2017-11-15T08:34:50.097Z,52.61
2017-11-15T08:35:50.154Z,52.32
2017-11-15T08:36:50.205Z,52.03
2017-11-15T08:37:50.285Z,52.51
2017-11-15T08:38:50.261Z,52.32
2017-11-15T08:40:11.320Z,52.32
2017-11-15T08:40:50.393Z,51.84
2017-11-15T08:41:50.439Z,52.12
2017-11-15T08:42:50.465Z,52.42
2017-11-15T08:43:50.461Z,52.61
2017-11-15T08:44:50.513Z,52.22
2017-11-15T08:46:11.588Z,52.22
2017-11-15T08:46:50.588Z,52.12
2017-11-15T08:47:50.663Z,51.93
2017-11-15T08:48:50.676Z,52.03
2017-11-15T08:49:50.747Z,52.70
2017-11-15T08:50:50.757Z,53.28
2017-11-15T08:52:11.824Z,53.38
2017-11-15T08:52:50.837Z,53.28
2017-11-15T08:53:50.893Z,52.99
2017-11-15T08:54:50.931Z,52.99
2017-11-15T08:55:50.970Z,53.66
2017-11-15T08:56:51.016Z,53.57
2017-11-15T08:58:12.101Z,53.57
2017-11-15T08:58:51.702Z,53.66
2017-11-15T08:59:51.127Z,53.38
2017-11-15T09:00:51.176Z,52.99
2017-11-15T09:01:51.210Z,53.86
2017-11-15T09:02:51.258Z,53.50
2017-11-15T09:04:12.350Z,53.69
2017-11-15T09:04:51.344Z,53.11
2017-11-15T09:05:51.382Z,53.02
2017-11-15T09:06:51.421Z,53.69
2017-11-15T09:07:51.467Z,53.50
2017-11-15T09:08:51.504Z,53.40
2017-11-15T09:10:12.616Z,53.47
2017-11-15T09:10:51.619Z,52.34
2017-11-15T09:11:51.639Z,52.61
2017-11-15T09:12:51.847Z,51.84
2017-11-15T09:13:51.718Z,52.32
2017-11-15T09:14:51.893Z,52.51
2017-11-15T09:16:12.881Z,52.32
2017-11-15T09:16:51.848Z,52.99
2017-11-15T09:17:51.918Z,52.51
2017-11-15T09:18:51.922Z,52.70
2017-11-15T09:19:51.966Z,52.70
2017-11-15T09:20:52.013Z,53.28
2017-11-15T09:22:13.069Z,53.47
2017-11-15T09:22:52.085Z,52.99
2017-11-15T09:23:52.125Z,53.57
2017-11-15T09:24:52.163Z,53.28
2017-11-15T09:25:52.210Z,53.28
2017-11-15T09:26:52.254Z,53.28
2017-11-15T09:28:13.334Z,52.51
2017-11-15T09:28:52.332Z,53.66
2017-11-15T09:29:52.379Z,52.89
2017-11-15T09:30:52.423Z,53.28
2017-11-15T09:31:52.574Z,53.28
2017-11-15T09:32:52.504Z,53.76
2017-11-15T09:34:13.669Z,52.89
2017-11-15T09:34:52.600Z,53.28
2017-11-15T09:35:52.622Z,53.57
2017-11-15T09:36:52.746Z,53.86
2017-11-15T09:37:52.781Z,53.96
2017-11-15T09:38:52.818Z,53.57
2017-11-15T09:40:14.658Z,53.66
2017-11-15T09:40:53.004Z,54.05
2017-11-15T09:41:53.023Z,54.05
2017-11-15T09:42:53.066Z,53.38
2017-11-15T09:43:53.128Z,53.76
2017-11-15T09:44:53.190Z,53.86
2017-11-15T09:46:14.167Z,53.96
2017-11-15T09:46:53.367Z,54.24
2017-11-15T09:47:53.273Z,54.24
2017-11-15T09:48:53.262Z,53.47
2017-11-15T09:49:53.252Z,53.38
2017-11-15T09:50:53.363Z,53.96
2017-11-15T09:52:14.317Z,54.36
2017-11-15T09:52:53.326Z,53.76
2017-11-15T09:53:53.998Z,53.96
2017-11-15T09:54:53.629Z,53.98
2017-11-15T09:55:54.447Z,53.38
2017-11-15T09:56:53.655Z,54.08
2017-11-15T09:58:14.722Z,54.08
2017-11-15T09:58:53.804Z,53.98
2017-11-15T09:59:53.773Z,54.17
2017-11-15T10:00:53.829Z,54.08
2017-11-15T10:01:53.729Z,53.69
2017-11-15T10:02:53.748Z,53.98
2017-11-15T10:04:14.885Z,54.08
2017-11-15T10:04:53.900Z,52.34
2017-11-15T10:05:54.617Z,49.24
2017-11-15T10:06:53.980Z,48.08
2017-11-15T10:07:54.088Z,46.93
2017-11-15T10:08:55.399Z,46.55
2017-11-15T10:10:15.122Z,48.28
2017-11-15T10:10:54.234Z,48.66
2017-11-15T10:11:54.444Z,48.83
2017-11-15T10:12:54.318Z,49.12
2017-11-15T10:13:55.272Z,49.12
2017-11-15T10:14:54.481Z,49.91
2017-11-15T10:16:15.570Z,50.01
2017-11-15T10:16:54.451Z,49.82
2017-11-15T10:17:54.604Z,49.82
2017-11-15T10:18:54.604Z,50.01
2017-11-15T10:19:54.656Z,50.20
2017-11-15T10:20:54.700Z,50.30
2017-11-15T10:22:15.745Z,50.10
2017-11-15T10:22:54.864Z,50.32
2017-11-15T10:23:54.621Z,50.23
2017-11-15T10:24:54.671Z,50.32
2017-11-15T10:25:54.711Z,50.61
2017-11-15T10:26:54.759Z,50.13
2017-11-15T10:28:15.816Z,49.84
2017-11-15T10:28:54.837Z,49.19
2017-11-15T10:29:54.865Z,48.81
2017-11-15T10:30:54.916Z,49.00
2017-11-15T10:31:54.954Z,49.12
2017-11-15T10:32:54.999Z,48.83
2017-11-15T10:34:16.078Z,48.83
2017-11-15T10:34:55.082Z,48.83
2017-11-15T10:35:55.138Z,49.12
2017-11-15T10:36:55.178Z,48.76
2017-11-15T10:37:55.207Z,48.86
2017-11-15T10:38:55.249Z,48.38
2017-11-15T10:40:16.316Z,48.28
2017-11-15T10:40:55.324Z,48.38
2017-11-15T10:41:55.376Z,48.18
2017-11-15T10:42:55.428Z,48.47
2017-11-15T10:43:55.464Z,48.01
2017-11-15T10:44:55.494Z,48.11
2017-11-15T10:46:16.666Z,47.72
2017-11-15T10:46:55.585Z,47.72
2017-11-15T10:47:55.635Z,47.63
2017-11-15T10:48:55.679Z,47.55
2017-11-15T10:49:55.719Z,47.72
2017-11-15T10:50:55.747Z,47.55
2017-11-15T10:52:16.821Z,47.75
2017-11-15T10:52:55.841Z,47.75
2017-11-15T10:53:55.876Z,47.94
2017-11-15T10:54:55.928Z,47.85
2017-11-15T10:55:55.965Z,47.75
2017-11-15T10:56:56.002Z,47.58
2017-11-15T10:58:17.101Z,47.67
2017-11-15T10:58:56.097Z,47.19
2017-11-15T10:59:56.126Z,47.09
2017-11-15T11:00:56.180Z,47.09
2017-11-15T11:01:56.218Z,46.90
2017-11-15T11:02:57.237Z,46.90
2017-11-15T11:04:17.332Z,46.90
2017-11-15T11:04:56.343Z,45.84
2017-11-15T11:05:56.393Z,46.13
2017-11-15T11:06:56.432Z,47.19
2017-11-15T11:07:56.479Z,47.19
2017-11-15T11:08:56.515Z,46.81
2017-11-15T11:10:17.586Z,47.19
2017-11-15T11:10:56.600Z,47.29
2017-11-15T11:11:56.650Z,47.77
2017-11-15T11:12:56.689Z,47.89
2017-11-15T11:13:56.739Z,47.31
2017-11-15T11:14:56.796Z,46.83
2017-11-15T11:16:17.839Z,47.12
2017-11-15T11:16:58.236Z,47.02
2017-11-15T11:17:56.905Z,47.22
2017-11-15T11:18:56.948Z,47.02
2017-11-15T11:19:57.013Z,46.73
2017-11-15T11:20:57.044Z,46.85
2017-11-15T11:22:18.110Z,46.25
2017-11-15T11:22:57.125Z,46.56
2017-11-15T11:23:57.169Z,46.47
2017-11-15T11:24:57.210Z,45.89
2017-11-15T11:25:57.251Z,46.27
2017-11-15T11:26:57.321Z,46.08
2017-11-15T11:28:18.362Z,45.31
2017-11-15T11:28:57.385Z,45.21
2017-11-15T11:29:57.479Z,45.09
2017-11-15T11:30:57.474Z,45.79
2017-11-15T11:31:57.523Z,45.31
2017-11-15T11:32:57.565Z,45.31
2017-11-15T11:34:18.632Z,45.21
2017-11-15T11:34:57.698Z,44.92
2017-11-15T11:35:57.691Z,45.01
2017-11-15T11:36:57.735Z,44.73
2017-11-15T11:37:58.005Z,44.73
2017-11-15T11:38:57.843Z,44.73
2017-11-15T11:40:18.907Z,44.53
2017-11-15T11:40:57.926Z,44.73
2017-11-15T11:41:57.974Z,44.60
2017-11-15T11:42:58.226Z,44.70
2017-11-15T11:43:58.195Z,44.32
2017-11-15T11:44:58.104Z,44.80
2017-11-15T11:46:19.194Z,44.80
2017-11-15T11:46:58.184Z,44.60
2017-11-15T11:47:58.223Z,44.32
2017-11-15T11:48:58.456Z,44.90
2017-11-15T11:49:58.314Z,45.76
2017-11-15T11:50:58.363Z,45.38
2017-11-15T11:52:19.472Z,45.67
2017-11-15T11:52:58.452Z,45.18
2017-11-15T11:53:58.497Z,45.09
2017-11-15T11:54:59.773Z,45.67
2017-11-15T11:55:58.686Z,46.15
2017-11-15T11:56:58.627Z,45.38
2017-11-15T11:58:19.707Z,45.00
2017-11-15T11:58:58.730Z,44.70
2017-11-15T11:59:58.756Z,44.80
2017-11-15T12:00:58.802Z,44.42
2017-11-15T12:01:58.848Z,44.01
2017-11-15T12:02:58.903Z,44.29
2017-11-15T12:04:19.988Z,44.39
2017-11-15T12:04:58.979Z,45.45
2017-11-15T12:05:59.024Z,45.36
2017-11-15T12:06:59.084Z,45.07
2017-11-15T12:07:59.127Z,44.20
2017-11-15T12:08:59.167Z,44.10
2017-11-15T12:10:20.236Z,44.10
2017-11-15T12:10:59.282Z,44.01
2017-11-15T12:11:59.299Z,44.39
2017-11-15T12:12:59.364Z,44.20
2017-11-15T12:13:59.383Z,43.24
2017-11-15T12:14:59.445Z,43.04
2017-11-15T12:16:20.521Z,42.66
2017-11-15T12:16:59.516Z,42.75
2017-11-15T12:17:59.578Z,43.14
2017-11-15T12:18:59.608Z,42.36
2017-11-15T12:19:59.656Z,41.78
2017-11-15T12:20:59.692Z,41.40
2017-11-15T12:22:20.768Z,41.69
2017-11-15T12:22:59.790Z,41.23
2017-11-15T12:23:59.838Z,41.78
2017-11-15T12:24:59.873Z,41.03
2017-11-15T12:25:59.924Z,40.84
2017-11-15T12:26:59.981Z,39.78
2017-11-15T12:28:21.039Z,38.91
2017-11-15T12:29:00.059Z,38.33
2017-11-15T12:30:00.105Z,38.53
2017-11-15T12:31:00.146Z,38.71
2017-11-15T12:32:00.227Z,39.20
2017-11-15T12:33:00.232Z,39.20
2017-11-15T12:34:21.314Z,39.29
2017-11-15T12:35:00.322Z,39.39
2017-11-15T12:36:00.373Z,39.78
2017-11-15T12:37:00.413Z,40.07
2017-11-15T12:38:00.459Z,39.97
2017-11-15T12:39:00.509Z,40.17
2017-11-15T12:40:21.576Z,40.45
2017-11-15T12:41:00.601Z,40.26
2017-11-15T12:42:00.703Z,40.45
2017-11-15T12:43:00.685Z,40.55
2017-11-15T12:44:00.786Z,40.65
2017-11-15T12:45:00.784Z,40.65
2017-11-15T12:46:21.849Z,41.03
2017-11-15T12:47:00.863Z,41.91
2017-11-15T12:48:00.966Z,41.13
2017-11-15T12:49:00.960Z,40.94
2017-11-15T12:50:01.040Z,41.83
2017-11-15T12:51:01.044Z,41.61
2017-11-15T12:52:22.354Z,41.91
2017-11-15T12:53:01.175Z,41.44